Seascale, United Kingdom
Current Conditions -  °F | °C
As of 8:50 AM on Friday 24 Oct 2014 (Local Time) from EGNC Reporting Station
Rain Showers Rain Showers  
Wind Chill: 10°   Ceiling: Unl
Heat Index: 10°   Visibility: 6mi
Dew Point:   Wind: 6mph
Humidity: 94%   Direction: 230°SW
Pressure: 29.83"   Gusts: NA
Location:  54.4°N, 3.48°W
Report Text: EGNC 240750Z 23005KT 9999 VCSH FEW015 SCT020 10/09 Q1010
Loading
Personal Weather Stations






























Interactive Weather Map
Tropical Storm Tracking
New forecast layout! Learn more

10-Day Weather Forecast

Advertisements
Track Severe Weather on mobile